Arlington, South Dakota
Current Conditions -  °F | °C
As of 7:10 PM on Tuesday 27 Jan 2015 (Local Time) from KMDS Reporting Station
Clear Clear  
Wind Chill: 24°   Ceiling: Unl
Heat Index: 34°   Visibility: 10mi
Dew Point: 34°   Wind: 14mph
Humidity: 100%   Direction: 150°SSE
Pressure: 29.96"   Gusts: NA
Location:  44.36°N, 97.13°W
Report Text: KMDS 280110Z AUTO 15012KT 10SM CLR 01/01 A2996 RMK AO2
Loading
Personal Weather Stations






























Interactive Weather Map New forecast layout! Learn more

10-Day Weather Forecast

Advertisements
Track Severe Weather on mobile